sensor_id;sensor_type;location;lat;lon;timestamp;P1;durP1;ratioP1;P2;durP2;ratioP2
32198;SDS011;19221;42.656;21.156;2023-07-13T00:00:21;11.52;;;5.75;;
32198;SDS011;19221;42.656;21.156;2023-07-13T00:02:47;12.18;;;5.90;;
32198;SDS011;19221;42.656;21.156;2023-07-13T00:05:13;8.63;;;5.80;;
32198;SDS011;19221;42.656;21.156;2023-07-13T00:07:39;12.43;;;6.05;;
32198;SDS011;19221;42.656;21.156;2023-07-13T00:10:04;15.07;;;5.63;;
32198;SDS011;19221;42.656;21.156;2023-07-13T00:12:37;9.63;;;5.78;;
32198;SDS011;19221;42.656;21.156;2023-07-13T00:15:04;12.20;;;6.38;;
32198;SDS011;19221;42.656;21.156;2023-07-13T00:17:30;12.85;;;6.15;;
32198;SDS011;19221;42.656;21.156;2023-07-13T00:19:56;11.43;;;5.70;;
32198;SDS011;19221;42.656;21.156;2023-07-13T00:22:22;8.38;;;4.88;;
32198;SDS011;19221;42.656;21.156;2023-07-13T00:24:51;11.07;;;5.88;;
32198;SDS011;19221;42.656;21.156;2023-07-13T00:27:17;10.73;;;5.80;;
32198;SDS011;19221;42.656;21.156;2023-07-13T00:29:43;10.07;;;6.05;;
32198;SDS011;19221;42.656;21.156;2023-07-13T00:32:10;11.13;;;5.70;;
32198;SDS011;19221;42.656;21.156;2023-07-13T00:34:37;11.30;;;5.93;;
32198;SDS011;19221;42.656;21.156;2023-07-13T00:37:03;12.20;;;6.05;;
32198;SDS011;19221;42.656;21.156;2023-07-13T00:39:32;11.45;;;6.13;;
32198;SDS011;19221;42.656;21.156;2023-07-13T00:41:58;11.52;;;6.40;;
32198;SDS011;19221;42.656;21.156;2023-07-13T00:44:23;9.30;;;6.03;;
32198;SDS011;19221;42.656;21.156;2023-07-13T00:46:49;13.15;;;6.22;;
32198;SDS011;19221;42.656;21.156;2023-07-13T00:49:16;13.05;;;5.63;;
32198;SDS011;19221;42.656;21.156;2023-07-13T00:54:13;11.95;;;5.65;;
32198;SDS011;19221;42.656;21.156;2023-07-13T00:56:39;8.50;;;5.35;;
32198;SDS011;19221;42.656;21.156;2023-07-13T00:59:07;11.05;;;5.63;;
32198;SDS011;19221;42.656;21.156;2023-07-13T01:01:33;10.90;;;5.70;;
32198;SDS011;19221;42.656;21.156;2023-07-13T01:03:59;10.27;;;6.00;;
32198;SDS011;19221;42.656;21.156;2023-07-13T01:06:25;13.15;;;5.90;;
32198;SDS011;19221;42.656;21.156;2023-07-13T01:08:50;15.25;;;6.30;;
32198;SDS011;19221;42.656;21.156;2023-07-13T01:11:20;18.30;;;6.88;;
32198;SDS011;19221;42.656;21.156;2023-07-13T01:13:47;14.40;;;6.60;;
32198;SDS011;19221;42.656;21.156;2023-07-13T01:16:22;11.35;;;5.97;;
32198;SDS011;19221;42.656;21.156;2023-07-13T01:18:49;10.32;;;6.05;;
32198;SDS011;19221;42.656;21.156;2023-07-13T01:21:14;10.60;;;6.18;;
32198;SDS011;19221;42.656;21.156;2023-07-13T01:23:41;13.23;;;7.03;;
32198;SDS011;19221;42.656;21.156;2023-07-13T01:26:06;17.20;;;7.40;;
32198;SDS011;19221;42.656;21.156;2023-07-13T01:28:32;11.43;;;7.28;;
32198;SDS011;19221;42.656;21.156;2023-07-13T01:31:02;16.52;;;6.80;;
32198;SDS011;19221;42.656;21.156;2023-07-13T01:33:28;17.08;;;9.90;;
32198;SDS011;19221;42.656;21.156;2023-07-13T01:35:54;23.75;;;12.13;;
32198;SDS011;19221;42.656;21.156;2023-07-13T01:38:23;11.40;;;7.85;;
32198;SDS011;19221;42.656;21.156;2023-07-13T01:40:50;18.52;;;8.88;;
32198;SDS011;19221;42.656;21.156;2023-07-13T01:43:15;16.85;;;9.40;;
32198;SDS011;19221;42.656;21.156;2023-07-13T01:45:41;17.63;;;9.95;;
32198;SDS011;19221;42.656;21.156;2023-07-13T01:48:09;19.80;;;11.65;;
32198;SDS011;19221;42.656;21.156;2023-07-13T01:50:35;24.77;;;13.02;;
32198;SDS011;19221;42.656;21.156;2023-07-13T01:53:01;27.48;;;13.90;;
32198;SDS011;19221;42.656;21.156;2023-07-13T01:55:27;16.45;;;11.57;;
32198;SDS011;19221;42.656;21.156;2023-07-13T01:57:53;21.45;;;11.60;;
32198;SDS011;19221;42.656;21.156;2023-07-13T02:00:18;14.35;;;8.73;;
32198;SDS011;19221;42.656;21.156;2023-07-13T02:02:44;19.45;;;8.23;;
32198;SDS011;19221;42.656;21.156;2023-07-13T02:05:10;15.80;;;8.73;;
32198;SDS011;19221;42.656;21.156;2023-07-13T02:07:36;10.88;;;6.60;;
32198;SDS011;19221;42.656;21.156;2023-07-13T02:10:02;19.05;;;8.98;;
32198;SDS011;19221;42.656;21.156;2023-07-13T02:12:28;15.95;;;7.57;;
32198;SDS011;19221;42.656;21.156;2023-07-13T02:14:54;12.77;;;7.32;;
32198;SDS011;19221;42.656;21.156;2023-07-13T02:17:19;16.95;;;6.68;;
32198;SDS011;19221;42.656;21.156;2023-07-13T02:19:45;13.68;;;6.65;;
32198;SDS011;19221;42.656;21.156;2023-07-13T02:22:12;12.65;;;6.50;;
32198;SDS011;19221;42.656;21.156;2023-07-13T02:24:39;10.93;;;5.57;;
32198;SDS011;19221;42.656;21.156;2023-07-13T02:27:05;18.90;;;6.25;;
32198;SDS011;19221;42.656;21.156;2023-07-13T02:29:31;11.77;;;6.28;;
32198;SDS011;19221;42.656;21.156;2023-07-13T02:31:56;13.57;;;6.28;;
32198;SDS011;19221;42.656;21.156;2023-07-13T02:34:22;12.95;;;5.53;;
32198;SDS011;19221;42.656;21.156;2023-07-13T02:36:47;13.48;;;6.75;;
32198;SDS011;19221;42.656;21.156;2023-07-13T02:39:13;14.10;;;6.63;;
32198;SDS011;19221;42.656;21.156;2023-07-13T02:41:39;10.10;;;6.30;;
32198;SDS011;19221;42.656;21.156;2023-07-13T02:44:04;14.05;;;6.57;;
32198;SDS011;19221;42.656;21.156;2023-07-13T02:46:31;15.60;;;6.18;;
32198;SDS011;19221;42.656;21.156;2023-07-13T02:48:57;16.55;;;6.55;;
32198;SDS011;19221;42.656;21.156;2023-07-13T02:51:22;10.13;;;5.82;;
32198;SDS011;19221;42.656;21.156;2023-07-13T02:53:48;17.60;;;6.25;;
32198;SDS011;19221;42.656;21.156;2023-07-13T02:56:14;11.10;;;5.90;;
32198;SDS011;19221;42.656;21.156;2023-07-13T02:58:39;11.45;;;6.43;;
32198;SDS011;19221;42.656;21.156;2023-07-13T03:01:06;11.00;;;5.57;;
32198;SDS011;19221;42.656;21.156;2023-07-13T03:03:31;9.85;;;5.78;;
32198;SDS011;19221;42.656;21.156;2023-07-13T03:05:58;14.10;;;6.15;;
32198;SDS011;19221;42.656;21.156;2023-07-13T03:08:25;13.23;;;5.90;;
32198;SDS011;19221;42.656;21.156;2023-07-13T03:10:58;13.40;;;6.22;;
32198;SDS011;19221;42.656;21.156;2023-07-13T03:13:24;13.10;;;5.85;;
32198;SDS011;19221;42.656;21.156;2023-07-13T03:15:50;14.40;;;6.88;;
32198;SDS011;19221;42.656;21.156;2023-07-13T03:18:15;14.30;;;6.88;;
32198;SDS011;19221;42.656;21.156;2023-07-13T03:20:41;11.45;;;6.10;;
32198;SDS011;19221;42.656;21.156;2023-07-13T03:23:07;9.23;;;5.95;;
32198;SDS011;19221;42.656;21.156;2023-07-13T03:25:32;14.27;;;6.63;;
32198;SDS011;19221;42.656;21.156;2023-07-13T03:27:58;14.52;;;6.82;;
32198;SDS011;19221;42.656;21.156;2023-07-13T03:30:23;14.38;;;7.18;;
32198;SDS011;19221;42.656;21.156;2023-07-13T03:32:49;15.60;;;6.57;;
32198;SDS011;19221;42.656;21.156;2023-07-13T03:35:15;13.10;;;6.35;;
32198;SDS011;19221;42.656;21.156;2023-07-13T03:37:41;17.25;;;6.28;;
32198;SDS011;19221;42.656;21.156;2023-07-13T03:40:08;11.13;;;6.15;;
32198;SDS011;19221;42.656;21.156;2023-07-13T03:42:34;11.30;;;6.25;;
32198;SDS011;19221;42.656;21.156;2023-07-13T03:45:00;13.27;;;6.78;;
32198;SDS011;19221;42.656;21.156;2023-07-13T03:47:26;17.00;;;6.05;;
32198;SDS011;19221;42.656;21.156;2023-07-13T03:49:51;11.02;;;6.03;;
32198;SDS011;19221;42.656;21.156;2023-07-13T03:52:17;11.57;;;6.07;;
32198;SDS011;19221;42.656;21.156;2023-07-13T03:54:43;14.88;;;6.35;;
32198;SDS011;19221;42.656;21.156;2023-07-13T03:57:08;16.58;;;5.97;;
32198;SDS011;19221;42.656;21.156;2023-07-13T03:59:34;12.80;;;5.80;;
32198;SDS011;19221;42.656;21.156;2023-07-13T04:02:00;12.30;;;6.57;;
32198;SDS011;19221;42.656;21.156;2023-07-13T04:04:26;13.93;;;6.28;;
32198;SDS011;19221;42.656;21.156;2023-07-13T04:06:51;14.93;;;6.55;;
32198;SDS011;19221;42.656;21.156;2023-07-13T04:09:18;18.42;;;8.95;;
32198;SDS011;19221;42.656;21.156;2023-07-13T04:11:44;15.35;;;8.27;;
32198;SDS011;19221;42.656;21.156;2023-07-13T04:14:10;12.40;;;6.93;;
32198;SDS011;19221;42.656;21.156;2023-07-13T04:16:35;11.95;;;6.75;;
32198;SDS011;19221;42.656;21.156;2023-07-13T04:19:01;11.63;;;6.60;;
32198;SDS011;19221;42.656;21.156;2023-07-13T04:21:27;12.57;;;7.07;;
32198;SDS011;19221;42.656;21.156;2023-07-13T04:23:53;14.57;;;6.50;;
32198;SDS011;19221;42.656;21.156;2023-07-13T04:26:19;12.95;;;5.97;;
32198;SDS011;19221;42.656;21.156;2023-07-13T04:28:46;10.73;;;6.50;;
32198;SDS011;19221;42.656;21.156;2023-07-13T04:31:12;10.43;;;6.22;;
32198;SDS011;19221;42.656;21.156;2023-07-13T04:33:38;11.50;;;6.03;;
32198;SDS011;19221;42.656;21.156;2023-07-13T04:36:04;15.80;;;5.97;;
32198;SDS011;19221;42.656;21.156;2023-07-13T04:38:30;8.77;;;5.40;;
32198;SDS011;19221;42.656;21.156;2023-07-13T04:40:57;12.60;;;5.85;;
32198;SDS011;19221;42.656;21.156;2023-07-13T04:43:23;11.48;;;5.55;;
32198;SDS011;19221;42.656;21.156;2023-07-13T04:45:50;12.80;;;5.88;;
32198;SDS011;19221;42.656;21.156;2023-07-13T04:48:15;15.65;;;5.68;;
32198;SDS011;19221;42.656;21.156;2023-07-13T04:50:41;8.90;;;5.03;;
32198;SDS011;19221;42.656;21.156;2023-07-13T04:53:09;9.35;;;5.63;;
32198;SDS011;19221;42.656;21.156;2023-07-13T04:55:36;12.80;;;5.88;;
32198;SDS011;19221;42.656;21.156;2023-07-13T04:58:01;10.13;;;5.55;;
32198;SDS011;19221;42.656;21.156;2023-07-13T05:00:28;11.80;;;5.93;;
32198;SDS011;19221;42.656;21.156;2023-07-13T05:02:57;10.63;;;5.68;;
32198;SDS011;19221;42.656;21.156;2023-07-13T05:05:24;9.60;;;5.57;;
32198;SDS011;19221;42.656;21.156;2023-07-13T05:07:49;15.15;;;6.45;;
32198;SDS011;19221;42.656;21.156;2023-07-13T05:10:15;10.35;;;6.28;;
32198;SDS011;19221;42.656;21.156;2023-07-13T05:12:41;12.88;;;6.50;;
32198;SDS011;19221;42.656;21.156;2023-07-13T05:15:07;14.77;;;6.55;;
32198;SDS011;19221;42.656;21.156;2023-07-13T05:17:32;18.33;;;7.03;;
32198;SDS011;19221;42.656;21.156;2023-07-13T05:19:58;15.43;;;6.35;;
32198;SDS011;19221;42.656;21.156;2023-07-13T05:22:24;11.05;;;5.47;;
32198;SDS011;19221;42.656;21.156;2023-07-13T05:24:49;12.02;;;6.00;;
32198;SDS011;19221;42.656;21.156;2023-07-13T05:27:15;10.27;;;5.72;;
32198;SDS011;19221;42.656;21.156;2023-07-13T05:29:41;12.88;;;5.55;;
32198;SDS011;19221;42.656;21.156;2023-07-13T05:32:06;13.65;;;6.07;;
32198;SDS011;19221;42.656;21.156;2023-07-13T05:34:32;9.85;;;5.72;;
32198;SDS011;19221;42.656;21.156;2023-07-13T05:36:58;10.90;;;6.00;;
32198;SDS011;19221;42.656;21.156;2023-07-13T05:39:23;11.30;;;6.22;;
32198;SDS011;19221;42.656;21.156;2023-07-13T05:41:50;13.80;;;6.03;;
32198;SDS011;19221;42.656;21.156;2023-07-13T05:44:15;10.65;;;5.63;;
32198;SDS011;19221;42.656;21.156;2023-07-13T05:46:41;15.20;;;6.35;;
32198;SDS011;19221;42.656;21.156;2023-07-13T05:49:06;11.93;;;6.03;;
32198;SDS011;19221;42.656;21.156;2023-07-13T05:51:32;10.48;;;6.07;;
32198;SDS011;19221;42.656;21.156;2023-07-13T05:53:58;9.45;;;5.97;;
32198;SDS011;19221;42.656;21.156;2023-07-13T05:56:23;16.55;;;6.25;;
32198;SDS011;19221;42.656;21.156;2023-07-13T05:58:50;19.17;;;6.38;;
32198;SDS011;19221;42.656;21.156;2023-07-13T06:01:16;10.95;;;6.20;;
32198;SDS011;19221;42.656;21.156;2023-07-13T06:03:42;14.70;;;6.70;;
32198;SDS011;19221;42.656;21.156;2023-07-13T06:06:08;11.68;;;6.32;;
32198;SDS011;19221;42.656;21.156;2023-07-13T06:08:34;28.27;;;8.38;;
32198;SDS011;19221;42.656;21.156;2023-07-13T06:11:03;13.88;;;6.30;;
32198;SDS011;19221;42.656;21.156;2023-07-13T06:13:29;14.23;;;7.28;;
32198;SDS011;19221;42.656;21.156;2023-07-13T06:15:55;17.45;;;8.27;;
32198;SDS011;19221;42.656;21.156;2023-07-13T06:18:21;16.35;;;7.63;;
32198;SDS011;19221;42.656;21.156;2023-07-13T06:20:46;14.48;;;7.70;;
32198;SDS011;19221;42.656;21.156;2023-07-13T06:23:12;15.60;;;8.57;;
32198;SDS011;19221;42.656;21.156;2023-07-13T06:25:38;12.15;;;7.70;;
32198;SDS011;19221;42.656;21.156;2023-07-13T06:28:03;17.83;;;9.40;;
32198;SDS011;19221;42.656;21.156;2023-07-13T06:30:29;21.50;;;9.70;;
32198;SDS011;19221;42.656;21.156;2023-07-13T06:32:55;15.10;;;8.45;;
32198;SDS011;19221;42.656;21.156;2023-07-13T06:35:20;20.45;;;8.77;;
32198;SDS011;19221;42.656;21.156;2023-07-13T06:37:46;21.02;;;9.90;;
32198;SDS011;19221;42.656;21.156;2023-07-13T06:40:12;19.13;;;9.27;;
32198;SDS011;19221;42.656;21.156;2023-07-13T06:42:38;17.20;;;8.90;;
32198;SDS011;19221;42.656;21.156;2023-07-13T06:45:04;21.58;;;9.07;;
32198;SDS011;19221;42.656;21.156;2023-07-13T06:47:29;22.50;;;8.23;;
32198;SDS011;19221;42.656;21.156;2023-07-13T06:49:55;18.08;;;8.68;;
32198;SDS011;19221;42.656;21.156;2023-07-13T06:52:21;13.48;;;7.35;;
32198;SDS011;19221;42.656;21.156;2023-07-13T06:54:46;17.27;;;8.57;;
32198;SDS011;19221;42.656;21.156;2023-07-13T06:57:12;17.25;;;8.52;;
32198;SDS011;19221;42.656;21.156;2023-07-13T06:59:38;20.00;;;8.45;;
32198;SDS011;19221;42.656;21.156;2023-07-13T07:02:04;17.52;;;8.55;;
32198;SDS011;19221;42.656;21.156;2023-07-13T07:04:30;21.55;;;8.18;;
32198;SDS011;19221;42.656;21.156;2023-07-13T07:06:55;16.73;;;8.82;;
32198;SDS011;19221;42.656;21.156;2023-07-13T07:09:21;19.80;;;8.40;;
32198;SDS011;19221;42.656;21.156;2023-07-13T07:11:47;16.88;;;8.05;;
32198;SDS011;19221;42.656;21.156;2023-07-13T07:14:12;25.13;;;9.50;;
32198;SDS011;19221;42.656;21.156;2023-07-13T07:16:39;21.60;;;10.00;;
32198;SDS011;19221;42.656;21.156;2023-07-13T07:19:05;18.40;;;8.20;;
32198;SDS011;19221;42.656;21.156;2023-07-13T07:21:30;20.95;;;9.43;;
32198;SDS011;19221;42.656;21.156;2023-07-13T07:23:58;18.85;;;8.35;;
32198;SDS011;19221;42.656;21.156;2023-07-13T07:26:25;17.83;;;8.32;;
32198;SDS011;19221;42.656;21.156;2023-07-13T07:28:51;18.80;;;7.20;;
32198;SDS011;19221;42.656;21.156;2023-07-13T07:31:16;20.33;;;8.20;;
32198;SDS011;19221;42.656;21.156;2023-07-13T07:33:42;18.05;;;7.78;;
32198;SDS011;19221;42.656;21.156;2023-07-13T07:36:08;18.52;;;7.03;;
32198;SDS011;19221;42.656;21.156;2023-07-13T07:38:34;19.02;;;6.78;;
32198;SDS011;19221;42.656;21.156;2023-07-13T07:41:01;11.70;;;7.35;;
32198;SDS011;19221;42.656;21.156;2023-07-13T07:43:27;17.08;;;6.72;;
32198;SDS011;19221;42.656;21.156;2023-07-13T07:45:53;13.23;;;6.68;;
32198;SDS011;19221;42.656;21.156;2023-07-13T07:48:18;16.17;;;6.85;;
32198;SDS011;19221;42.656;21.156;2023-07-13T07:50:44;16.58;;;7.45;;
32198;SDS011;19221;42.656;21.156;2023-07-13T07:53:10;11.65;;;7.18;;
32198;SDS011;19221;42.656;21.156;2023-07-13T07:55:36;17.40;;;7.47;;
32198;SDS011;19221;42.656;21.156;2023-07-13T07:58:02;20.15;;;7.78;;
32198;SDS011;19221;42.656;21.156;2023-07-13T08:00:27;16.40;;;7.85;;
32198;SDS011;19221;42.656;21.156;2023-07-13T08:02:56;20.63;;;7.97;;
32198;SDS011;19221;42.656;21.156;2023-07-13T08:05:22;15.05;;;6.60;;
32198;SDS011;19221;42.656;21.156;2023-07-13T08:07:47;15.10;;;7.72;;
32198;SDS011;19221;42.656;21.156;2023-07-13T08:10:13;16.17;;;7.82;;
32198;SDS011;19221;42.656;21.156;2023-07-13T08:12:39;17.55;;;6.95;;
32198;SDS011;19221;42.656;21.156;2023-07-13T08:15:05;13.55;;;7.40;;
32198;SDS011;19221;42.656;21.156;2023-07-13T08:17:31;17.73;;;6.78;;
32198;SDS011;19221;42.656;21.156;2023-07-13T08:19:57;18.90;;;7.15;;
32198;SDS011;19221;42.656;21.156;2023-07-13T08:22:23;15.13;;;7.18;;
32198;SDS011;19221;42.656;21.156;2023-07-13T08:24:48;22.65;;;5.82;;
32198;SDS011;19221;42.656;21.156;2023-07-13T08:27:21;12.40;;;7.20;;
32198;SDS011;19221;42.656;21.156;2023-07-13T08:29:47;11.68;;;6.18;;
32198;SDS011;19221;42.656;21.156;2023-07-13T08:32:13;11.48;;;6.28;;
32198;SDS011;19221;42.656;21.156;2023-07-13T08:34:39;11.77;;;6.30;;
32198;SDS011;19221;42.656;21.156;2023-07-13T08:37:05;12.93;;;6.15;;
32198;SDS011;19221;42.656;21.156;2023-07-13T08:39:31;14.73;;;6.18;;
32198;SDS011;19221;42.656;21.156;2023-07-13T08:42:23;17.67;;;9.55;;
32198;SDS011;19221;42.656;21.156;2023-07-13T08:47:17;17.75;;;7.93;;
32198;SDS011;19221;42.656;21.156;2023-07-13T08:49:46;36.70;;;14.75;;
32198;SDS011;19221;42.656;21.156;2023-07-13T08:54:48;14.55;;;6.88;;
32198;SDS011;19221;42.656;21.156;2023-07-13T08:57:18;14.32;;;6.90;;
32198;SDS011;19221;42.656;21.156;2023-07-13T08:59:44;14.30;;;7.38;;
32198;SDS011;19221;42.656;21.156;2023-07-13T09:12:30;17.45;;;8.45;;
32198;SDS011;19221;42.656;21.156;2023-07-13T09:14:57;15.60;;;8.02;;
32198;SDS011;19221;42.656;21.156;2023-07-13T09:17:25;18.15;;;7.80;;
32198;SDS011;19221;42.656;21.156;2023-07-13T09:20:16;24.48;;;8.52;;
32198;SDS011;19221;42.656;21.156;2023-07-13T09:22:43;21.08;;;9.05;;
32198;SDS011;19221;42.656;21.156;2023-07-13T09:27:55;13.65;;;7.28;;
32198;SDS011;19221;42.656;21.156;2023-07-13T09:30:30;18.00;;;7.15;;
32198;SDS011;19221;42.656;21.156;2023-07-13T09:32:58;10.02;;;6.97;;
32198;SDS011;19221;42.656;21.156;2023-07-13T09:35:28;13.07;;;6.70;;
32198;SDS011;19221;42.656;21.156;2023-07-13T09:38:13;17.42;;;7.30;;
32198;SDS011;19221;42.656;21.156;2023-07-13T09:40:43;13.50;;;7.32;;
32198;SDS011;19221;42.656;21.156;2023-07-13T09:43:10;16.42;;;7.60;;
32198;SDS011;19221;42.656;21.156;2023-07-13T09:45:38;16.65;;;7.93;;
32198;SDS011;19221;42.656;21.156;2023-07-13T09:48:05;13.15;;;7.25;;
32198;SDS011;19221;42.656;21.156;2023-07-13T09:50:32;15.75;;;7.88;;
32198;SDS011;19221;42.656;21.156;2023-07-13T09:52:57;15.85;;;8.85;;
32198;SDS011;19221;42.656;21.156;2023-07-13T09:57:52;14.15;;;7.38;;
32198;SDS011;19221;42.656;21.156;2023-07-13T10:00:36;14.70;;;7.13;;
32198;SDS011;19221;42.656;21.156;2023-07-13T10:03:09;10.95;;;7.18;;
32198;SDS011;19221;42.656;21.156;2023-07-13T10:05:40;18.33;;;7.38;;
32198;SDS011;19221;42.656;21.156;2023-07-13T10:08:14;14.18;;;7.60;;
32198;SDS011;19221;42.656;21.156;2023-07-13T10:10:40;13.90;;;7.57;;
32198;SDS011;19221;42.656;21.156;2023-07-13T10:13:12;14.85;;;8.00;;
32198;SDS011;19221;42.656;21.156;2023-07-13T10:18:15;13.98;;;7.90;;
32198;SDS011;19221;42.656;21.156;2023-07-13T10:20:41;15.38;;;8.73;;
32198;SDS011;19221;42.656;21.156;2023-07-13T10:23:11;19.77;;;8.60;;
32198;SDS011;19221;42.656;21.156;2023-07-13T10:25:39;13.32;;;8.18;;
32198;SDS011;19221;42.656;21.156;2023-07-13T10:28:21;15.30;;;8.77;;
32198;SDS011;19221;42.656;21.156;2023-07-13T10:30:48;28.35;;;15.95;;
32198;SDS011;19221;42.656;21.156;2023-07-13T10:33:15;33.90;;;19.90;;
32198;SDS011;19221;42.656;21.156;2023-07-13T10:35:42;22.52;;;11.45;;
32198;SDS011;19221;42.656;21.156;2023-07-13T10:38:12;18.65;;;9.32;;
32198;SDS011;19221;42.656;21.156;2023-07-13T10:40:40;16.50;;;8.63;;
32198;SDS011;19221;42.656;21.156;2023-07-13T10:45:39;18.45;;;9.10;;
32198;SDS011;19221;42.656;21.156;2023-07-13T10:48:05;16.70;;;9.48;;
32198;SDS011;19221;42.656;21.156;2023-07-13T10:50:35;14.45;;;9.20;;
32198;SDS011;19221;42.656;21.156;2023-07-13T10:53:15;15.07;;;9.38;;
32198;SDS011;19221;42.656;21.156;2023-07-13T11:03:22;17.33;;;9.13;;
32198;SDS011;19221;42.656;21.156;2023-07-13T11:05:50;15.95;;;10.63;;
32198;SDS011;19221;42.656;21.156;2023-07-13T11:10:52;15.77;;;8.82;;
32198;SDS011;19221;42.656;21.156;2023-07-13T11:18:48;16.98;;;8.60;;
32198;SDS011;19221;42.656;21.156;2023-07-13T11:23:43;15.18;;;8.68;;
32198;SDS011;19221;42.656;21.156;2023-07-13T11:31:52;14.25;;;9.30;;
32198;SDS011;19221;42.656;21.156;2023-07-13T11:34:21;21.33;;;12.05;;
32198;SDS011;19221;42.656;21.156;2023-07-13T11:36:50;15.93;;;9.95;;
32198;SDS011;19221;42.656;21.156;2023-07-13T11:39:18;12.70;;;7.80;;
32198;SDS011;19221;42.656;21.156;2023-07-13T11:41:45;10.40;;;7.32;;
32198;SDS011;19221;42.656;21.156;2023-07-13T11:44:18;15.57;;;8.70;;
32198;SDS011;19221;42.656;21.156;2023-07-13T11:46:45;15.40;;;9.88;;
32198;SDS011;19221;42.656;21.156;2023-07-13T11:49:14;14.77;;;8.13;;
32198;SDS011;19221;42.656;21.156;2023-07-13T11:51:40;14.00;;;7.65;;
32198;SDS011;19221;42.656;21.156;2023-07-13T11:54:10;15.70;;;8.50;;
32198;SDS011;19221;42.656;21.156;2023-07-13T11:56:39;12.43;;;7.35;;
32198;SDS011;19221;42.656;21.156;2023-07-13T11:59:07;14.40;;;7.72;;
32198;SDS011;19221;42.656;21.156;2023-07-13T12:01:34;12.32;;;7.55;;
32198;SDS011;19221;42.656;21.156;2023-07-13T12:04:02;15.25;;;8.15;;
32198;SDS011;19221;42.656;21.156;2023-07-13T12:06:30;14.77;;;8.38;;
32198;SDS011;19221;42.656;21.156;2023-07-13T12:08:56;16.90;;;9.38;;
32198;SDS011;19221;42.656;21.156;2023-07-13T12:11:23;14.30;;;7.95;;
32198;SDS011;19221;42.656;21.156;2023-07-13T12:13:49;19.15;;;9.40;;
32198;SDS011;19221;42.656;21.156;2023-07-13T12:16:36;14.57;;;8.43;;
32198;SDS011;19221;42.656;21.156;2023-07-13T12:19:01;15.88;;;8.70;;
32198;SDS011;19221;42.656;21.156;2023-07-13T12:21:31;12.70;;;8.32;;
32198;SDS011;19221;42.656;21.156;2023-07-13T12:23:57;14.88;;;8.13;;
32198;SDS011;19221;42.656;21.156;2023-07-13T12:26:23;13.82;;;8.38;;
32198;SDS011;19221;42.656;21.156;2023-07-13T12:28:52;13.80;;;7.95;;
32198;SDS011;19221;42.656;21.156;2023-07-13T12:36:34;14.02;;;8.60;;
32198;SDS011;19221;42.656;21.156;2023-07-13T12:39:03;20.35;;;9.55;;
32198;SDS011;19221;42.656;21.156;2023-07-13T12:41:30;18.58;;;9.07;;
32198;SDS011;19221;42.656;21.156;2023-07-13T12:43:55;21.83;;;9.85;;
32198;SDS011;19221;42.656;21.156;2023-07-13T12:46:23;27.67;;;9.52;;
32198;SDS011;19221;42.656;21.156;2023-07-13T12:48:53;16.73;;;9.73;;
32198;SDS011;19221;42.656;21.156;2023-07-13T12:51:22;30.73;;;10.07;;
32198;SDS011;19221;42.656;21.156;2023-07-13T12:53:56;19.25;;;9.52;;
32198;SDS011;19221;42.656;21.156;2023-07-13T12:56:22;19.50;;;9.30;;
32198;SDS011;19221;42.656;21.156;2023-07-13T12:58:48;14.55;;;9.73;;
32198;SDS011;19221;42.656;21.156;2023-07-13T13:01:22;20.25;;;12.40;;
32198;SDS011;19221;42.656;21.156;2023-07-13T13:03:49;16.38;;;10.25;;
32198;SDS011;19221;42.656;21.156;2023-07-13T13:08:46;13.45;;;8.93;;
32198;SDS011;19221;42.656;21.156;2023-07-13T13:11:17;15.30;;;9.93;;
32198;SDS011;19221;42.656;21.156;2023-07-13T13:13:43;14.57;;;9.75;;
32198;SDS011;19221;42.656;21.156;2023-07-13T13:18:59;15.80;;;9.70;;
32198;SDS011;19221;42.656;21.156;2023-07-13T13:21:27;23.13;;;9.93;;
32198;SDS011;19221;42.656;21.156;2023-07-13T13:23:53;18.13;;;9.55;;
32198;SDS011;19221;42.656;21.156;2023-07-13T13:26:19;25.65;;;10.27;;
32198;SDS011;19221;42.656;21.156;2023-07-13T13:28:45;21.08;;;9.25;;
32198;SDS011;19221;42.656;21.156;2023-07-13T13:31:11;19.10;;;9.15;;
32198;SDS011;19221;42.656;21.156;2023-07-13T13:33:42;35.63;;;18.38;;
32198;SDS011;19221;42.656;21.156;2023-07-13T13:36:17;18.17;;;10.40;;
32198;SDS011;19221;42.656;21.156;2023-07-13T13:38:43;18.05;;;10.05;;
32198;SDS011;19221;42.656;21.156;2023-07-13T13:41:10;15.35;;;9.65;;
32198;SDS011;19221;42.656;21.156;2023-07-13T13:43:36;20.80;;;13.20;;
32198;SDS011;19221;42.656;21.156;2023-07-13T13:46:02;14.50;;;10.10;;
32198;SDS011;19221;42.656;21.156;2023-07-13T13:48:32;16.23;;;9.55;;
32198;SDS011;19221;42.656;21.156;2023-07-13T13:50:58;17.63;;;10.40;;
32198;SDS011;19221;42.656;21.156;2023-07-13T13:53:25;13.10;;;9.07;;
32198;SDS011;19221;42.656;21.156;2023-07-13T13:55:51;26.35;;;10.30;;
32198;SDS011;19221;42.656;21.156;2023-07-13T13:58:18;15.13;;;8.93;;
32198;SDS011;19221;42.656;21.156;2023-07-13T14:00:44;15.75;;;9.02;;
32198;SDS011;19221;42.656;21.156;2023-07-13T14:03:17;15.32;;;10.40;;
32198;SDS011;19221;42.656;21.156;2023-07-13T14:05:43;14.38;;;10.00;;
32198;SDS011;19221;42.656;21.156;2023-07-13T14:08:14;17.85;;;9.43;;
32198;SDS011;19221;42.656;21.156;2023-07-13T14:10:39;20.10;;;10.20;;
32198;SDS011;19221;42.656;21.156;2023-07-13T14:13:07;13.32;;;9.05;;
32198;SDS011;19221;42.656;21.156;2023-07-13T14:15:35;17.73;;;9.87;;
32198;SDS011;19221;42.656;21.156;2023-07-13T14:18:01;17.08;;;9.35;;
32198;SDS011;19221;42.656;21.156;2023-07-13T14:20:26;14.00;;;9.32;;
32198;SDS011;19221;42.656;21.156;2023-07-13T14:22:52;15.80;;;8.95;;
32198;SDS011;19221;42.656;21.156;2023-07-13T14:25:19;16.33;;;9.32;;
32198;SDS011;19221;42.656;21.156;2023-07-13T14:27:45;18.45;;;9.02;;
32198;SDS011;19221;42.656;21.156;2023-07-13T14:30:12;13.90;;;9.00;;
32198;SDS011;19221;42.656;21.156;2023-07-13T14:32:38;18.50;;;9.70;;
32198;SDS011;19221;42.656;21.156;2023-07-13T14:35:03;17.58;;;10.07;;
32198;SDS011;19221;42.656;21.156;2023-07-13T14:37:29;16.75;;;8.93;;
32198;SDS011;19221;42.656;21.156;2023-07-13T14:39:55;18.15;;;9.52;;
32198;SDS011;19221;42.656;21.156;2023-07-13T14:42:20;19.60;;;9.00;;
32198;SDS011;19221;42.656;21.156;2023-07-13T14:44:46;15.25;;;8.30;;
32198;SDS011;19221;42.656;21.156;2023-07-13T14:47:12;17.48;;;9.55;;
32198;SDS011;19221;42.656;21.156;2023-07-13T14:49:38;17.67;;;8.70;;
32198;SDS011;19221;42.656;21.156;2023-07-13T14:52:15;24.23;;;8.45;;
32198;SDS011;19221;42.656;21.156;2023-07-13T14:54:41;13.70;;;8.43;;
32198;SDS011;19221;42.656;21.156;2023-07-13T14:57:09;19.13;;;8.40;;
32198;SDS011;19221;42.656;21.156;2023-07-13T14:59:35;15.90;;;8.70;;
32198;SDS011;19221;42.656;21.156;2023-07-13T15:02:01;16.83;;;8.60;;
32198;SDS011;19221;42.656;21.156;2023-07-13T15:04:27;18.67;;;8.65;;
32198;SDS011;19221;42.656;21.156;2023-07-13T15:06:53;15.55;;;9.00;;
32198;SDS011;19221;42.656;21.156;2023-07-13T15:09:19;17.77;;;8.55;;
32198;SDS011;19221;42.656;21.156;2023-07-13T15:11:45;13.00;;;8.68;;
32198;SDS011;19221;42.656;21.156;2023-07-13T15:14:10;20.48;;;9.60;;
32198;SDS011;19221;42.656;21.156;2023-07-13T15:16:36;23.85;;;10.70;;
32198;SDS011;19221;42.656;21.156;2023-07-13T15:19:02;17.50;;;10.15;;
32198;SDS011;19221;42.656;21.156;2023-07-13T15:21:28;19.88;;;11.45;;